Time;durP1;ratioP1;P1;durP2;ratioP2;P2;SDS_P1;SDS_P2;PMS_P1;PMS_P2;Temp;Humidity;BMP_temperature;BMP_pressure;BME280_temperature;BME280_humidity;BME280_pressure;Samples;Min_cycle;Max_cycle;Signal;HPM_P1;HPM_P2
2023/02/03 00:00:55;;;;;;;55.37;20.80;;;;;;;;;;5101404;27;20088;-69
2023/02/03 00:03:20;;;;;;;37.70;17.87;;;;;;;;;;5118383;27;20066;-69
2023/02/03 00:05:46;;;;;;;44.47;18.10;;;;;;;;;;5135673;27;20061;-68
2023/02/03 00:08:12;;;;;;;46.60;18.27;;;;;;;;;;5118456;27;20433;-69
2023/02/03 00:10:38;;;;;;;45.33;18.53;;;;;;;;;;5101543;27;20583;-69
2023/02/03 00:13:04;;;;;;;44.83;18.60;;;;;;;;;;5101302;27;20137;-69
2023/02/03 00:15:30;;;;;;;52.33;19.87;;;;;;;;;;5117990;27;20145;-69
2023/02/03 00:17:55;;;;;;;43.23;17.93;;;;;;;;;;5101166;27;20117;-69
2023/02/03 00:20:21;;;;;;;51.57;19.70;;;;;;;;;;5101166;27;20035;-69
2023/02/03 00:22:47;;;;;;;47.83;19.50;;;;;;;;;;5101066;27;20038;-70
2023/02/03 00:25:12;;;;;;;41.03;17.73;;;;;;;;;;5100964;27;20133;-69
2023/02/03 00:27:38;;;;;;;44.23;18.30;;;;;;;;;;5101413;27;20041;-69
2023/02/03 00:30:04;;;;;;;42.13;17.53;;;;;;;;;;5100877;27;20408;-69
2023/02/03 00:32:30;;;;;;;48.57;19.17;;;;;;;;;;5101395;27;20041;-69
2023/02/03 00:34:56;;;;;;;52.37;20.43;;;;;;;;;;5099793;27;20039;-69
2023/02/03 00:37:22;;;;;;;47.13;18.60;;;;;;;;;;5100634;27;20031;-69
2023/02/03 00:39:48;;;;;;;42.03;17.73;;;;;;;;;;5100680;27;20039;-69
2023/02/03 00:42:13;;;;;;;45.50;19.73;;;;;;;;;;5117572;27;20031;-69
2023/02/03 00:44:39;;;;;;;45.10;19.40;;;;;;;;;;5100810;27;20091;-69
2023/02/03 00:47:05;;;;;;;46.17;18.80;;;;;;;;;;5134651;27;20461;-69
2023/02/03 00:49:30;;;;;;;40.33;17.73;;;;;;;;;;5134816;27;20120;-69
2023/02/03 00:51:56;;;;;;;44.27;18.03;;;;;;;;;;5100599;27;20035;-69
2023/02/03 00:54:21;;;;;;;45.53;19.27;;;;;;;;;;5100396;27;20093;-69
2023/02/03 00:56:47;;;;;;;45.37;18.03;;;;;;;;;;5100348;27;20034;-69
2023/02/03 00:59:13;;;;;;;47.87;18.03;;;;;;;;;;5100247;27;20031;-69
2023/02/03 01:01:38;;;;;;;45.73;17.30;;;;;;;;;;5100766;27;20027;-69
2023/02/03 01:04:04;;;;;;;46.40;18.50;;;;;;;;;;5100581;27;20391;-69
2023/02/03 01:06:29;;;;;;;48.67;19.27;;;;;;;;;;5117108;27;20039;-69
2023/02/03 01:08:55;;;;;;;47.23;19.83;;;;;;;;;;5100112;27;20035;-68
2023/02/03 01:11:26;;;;;;;44.43;18.90;;;;;;;;;;5100044;27;20568;-69
2023/02/03 01:13:52;;;;;;;52.75;20.33;;;;;;;;;;5117154;27;20532;-69
2023/02/03 01:16:19;;;;;;;42.10;18.03;;;;;;;;;;5116922;27;20053;-69
2023/02/03 01:18:45;;;;;;;50.03;19.50;;;;;;;;;;5100231;27;20035;-69
2023/02/03 01:21:15;;;;;;;45.00;18.73;;;;;;;;;;5116671;27;20023;-69
2023/02/03 01:23:41;;;;;;;46.57;18.83;;;;;;;;;;5117455;27;20483;-69
2023/02/03 01:26:08;;;;;;;50.20;20.40;;;;;;;;;;5133984;27;20084;-69
2023/02/03 01:28:34;;;;;;;52.17;19.53;;;;;;;;;;5116783;27;20039;-69
2023/02/03 01:31:10;;;;;;;46.97;18.90;;;;;;;;;;5116718;27;20483;-69
2023/02/03 01:33:39;;;;;;;49.07;19.50;;;;;;;;;;5133606;27;20067;-69
2023/02/03 01:36:08;;;;;;;45.20;18.70;;;;;;;;;;5099656;27;20372;-69
2023/02/03 01:38:35;;;;;;;43.37;18.53;;;;;;;;;;5116544;27;20404;-69
2023/02/03 01:41:00;;;;;;;53.73;19.93;;;;;;;;;;5099376;27;20125;-69
2023/02/03 01:43:36;;;;;;;46.97;19.00;;;;;;;;;;5099491;27;20134;-69
2023/02/03 01:46:04;;;;;;;46.90;18.00;;;;;;;;;;5098247;27;20134;-68
2023/02/03 01:48:33;;;;;;;47.93;19.63;;;;;;;;;;5099374;27;20070;-69
2023/02/03 01:51:01;;;;;;;50.10;19.17;;;;;;;;;;5116480;27;20031;-68
2023/02/03 01:53:26;;;;;;;48.93;19.23;;;;;;;;;;5099147;27;20057;-69
2023/02/03 01:55:52;;;;;;;40.10;18.70;;;;;;;;;;5133507;27;20031;-69
2023/02/03 01:58:23;;;;;;;48.17;19.67;;;;;;;;;;5099001;27;20031;-69
2023/02/03 02:00:49;;;;;;;49.57;19.90;;;;;;;;;;5099235;27;20065;-69
2023/02/03 02:03:16;;;;;;;47.13;20.80;;;;;;;;;;5099095;27;20035;-69
2023/02/03 02:05:47;;;;;;;52.53;20.07;;;;;;;;;;5116307;27;20054;-69
2023/02/03 02:08:14;;;;;;;53.50;21.47;;;;;;;;;;5133606;27;20187;-69
2023/02/03 02:10:40;;;;;;;47.13;20.23;;;;;;;;;;5099077;27;20027;-69
2023/02/03 02:13:08;;;;;;;52.63;20.70;;;;;;;;;;5098782;27;20035;-69
2023/02/03 02:15:53;;;;;;;49.40;20.43;;;;;;;;;;5098713;27;20400;-69
2023/02/03 02:18:19;;;;;;;37.57;15.60;;;;;;;;;;5067990;27;20497;-69
2023/02/03 02:20:44;;;;;;;51.90;20.77;;;;;;;;;;5099055;27;20035;-69
2023/02/03 02:23:10;;;;;;;50.87;19.77;;;;;;;;;;5098837;27;20035;-70
2023/02/03 02:25:35;;;;;;;49.13;19.73;;;;;;;;;;5115793;27;20038;-69
2023/02/03 02:28:15;;;;;;;53.47;21.37;;;;;;;;;;5115822;27;20071;-68
2023/02/03 02:30:57;;;;;;;49.22;19.98;;;;;;;;;;5115142;27;20112;-69
2023/02/03 02:33:29;;;;;;;54.35;19.63;;;;;;;;;;5098514;27;20047;-69
2023/02/03 02:36:07;;;;;;;53.63;20.50;;;;;;;;;;5115589;27;20097;-69
2023/02/03 02:38:43;;;;;;;50.23;20.03;;;;;;;;;;5098455;28;20027;-69
2023/02/03 02:41:09;;;;;;;52.47;20.60;;;;;;;;;;5098534;27;20469;-69
2023/02/03 02:44:01;;;;;;;61.50;21.87;;;;;;;;;;5098251;27;20037;-69
2023/02/03 02:46:31;;;;;;;54.03;19.53;;;;;;;;;;5112261;27;20083;-69
2023/02/03 02:49:10;;;;;;;55.40;20.47;;;;;;;;;;5132325;27;20054;-69
2023/02/03 02:51:37;;;;;;;51.50;19.70;;;;;;;;;;5115265;27;20031;-69
2023/02/03 02:54:06;;;;;;;55.80;20.57;;;;;;;;;;5098101;27;20142;-69
2023/02/03 02:56:33;;;;;;;54.17;20.57;;;;;;;;;;5114651;27;20560;-69
2023/02/03 02:59:00;;;;;;;53.47;20.67;;;;;;;;;;5115086;27;20057;-69
2023/02/03 03:01:26;;;;;;;58.23;20.33;;;;;;;;;;5098121;27;20136;-69
2023/02/03 03:03:51;;;;;;;55.37;21.00;;;;;;;;;;5098268;28;20035;-69
2023/02/03 03:06:20;;;;;;;50.03;19.97;;;;;;;;;;5098240;28;20035;-69
2023/02/03 03:08:48;;;;;;;51.77;19.30;;;;;;;;;;5098832;27;20039;-68
2023/02/03 03:11:15;;;;;;;51.07;19.07;;;;;;;;;;5115875;28;20100;-69
2023/02/03 03:13:46;;;;;;;53.90;20.13;;;;;;;;;;5098045;27;20531;-70
2023/02/03 03:16:13;;;;;;;54.20;19.80;;;;;;;;;;5081917;28;20031;-69
2023/02/03 03:18:42;;;;;;;51.93;20.60;;;;;;;;;;5098284;28;20031;-69
2023/02/03 03:21:09;;;;;;;48.77;19.40;;;;;;;;;;5114861;28;20039;-69
2023/02/03 03:23:38;;;;;;;55.43;21.40;;;;;;;;;;5097839;28;20524;-69
2023/02/03 03:26:12;;;;;;;62.23;21.60;;;;;;;;;;5115101;28;20038;-69
2023/02/03 03:29:04;;;;;;;55.07;21.73;;;;;;;;;;5098061;28;20031;-69
2023/02/03 03:31:30;;;;;;;53.60;21.97;;;;;;;;;;5074897;28;20046;-69
2023/02/03 03:33:56;;;;;;;58.57;21.53;;;;;;;;;;5081160;28;20400;-69
2023/02/03 03:36:30;;;;;;;54.43;21.13;;;;;;;;;;5097708;28;20039;-69
2023/02/03 03:39:25;;;;;;;49.47;20.87;;;;;;;;;;5098252;28;20067;-69
2023/02/03 03:42:01;;;;;;;57.60;20.53;;;;;;;;;;5088896;28;20070;-69
2023/02/03 03:44:29;;;;;;;58.10;20.90;;;;;;;;;;5114960;28;20043;-69
2023/02/03 03:47:00;;;;;;;54.13;19.73;;;;;;;;;;5097721;28;20464;-69
2023/02/03 03:49:26;;;;;;;53.03;19.83;;;;;;;;;;5114677;28;20063;-69
2023/02/03 03:51:55;;;;;;;52.13;19.10;;;;;;;;;;5097708;28;20399;-70
2023/02/03 03:54:22;;;;;;;53.00;19.77;;;;;;;;;;5097543;28;20075;-69
2023/02/03 03:56:59;;;;;;;55.63;20.30;;;;;;;;;;5132216;28;20035;-69
2023/02/03 03:59:27;;;;;;;59.73;20.27;;;;;;;;;;5097500;28;20060;-70
2023/02/03 04:01:53;;;;;;;54.00;19.63;;;;;;;;;;5097588;28;20398;-69
2023/02/03 04:04:19;;;;;;;55.60;19.90;;;;;;;;;;5097654;28;20031;-69
2023/02/03 04:06:45;;;;;;;54.27;19.53;;;;;;;;;;5114665;28;20035;-69
2023/02/03 04:09:11;;;;;;;55.83;20.87;;;;;;;;;;5133236;27;20358;-69
2023/02/03 04:14:20;;;;;;;61.87;21.33;;;;;;;;;;5118313;27;20055;-69
2023/02/03 04:16:46;;;;;;;55.57;19.97;;;;;;;;;;5084519;27;20035;-69
2023/02/03 04:19:11;;;;;;;59.03;21.17;;;;;;;;;;5100876;27;20043;-69
2023/02/03 04:21:37;;;;;;;53.77;19.83;;;;;;;;;;5100971;27;20039;-69
2023/02/03 04:24:02;;;;;;;48.70;19.50;;;;;;;;;;5100906;27;20039;-69
2023/02/03 04:26:28;;;;;;;55.10;20.73;;;;;;;;;;5117869;27;20088;-69
2023/02/03 04:28:54;;;;;;;56.83;20.80;;;;;;;;;;5117836;27;20500;-69
2023/02/03 04:31:19;;;;;;;50.90;19.27;;;;;;;;;;5101307;27;20484;-69
2023/02/03 04:33:45;;;;;;;53.33;19.40;;;;;;;;;;5084196;27;20391;-69
2023/02/03 04:36:10;;;;;;;50.00;19.40;;;;;;;;;;5117777;27;20070;-69
2023/02/03 04:38:36;;;;;;;56.30;19.77;;;;;;;;;;5100853;27;20035;-69
2023/02/03 04:41:01;;;;;;;61.27;20.93;;;;;;;;;;5100528;27;20528;-69
2023/02/03 04:43:27;;;;;;;53.60;20.90;;;;;;;;;;5100588;27;20042;-69
2023/02/03 04:45:53;;;;;;;52.60;21.03;;;;;;;;;;5101026;27;20039;-69
2023/02/03 04:48:18;;;;;;;64.57;20.87;;;;;;;;;;5100549;27;20172;-69
2023/02/03 04:50:44;;;;;;;51.60;19.10;;;;;;;;;;5100794;27;20176;-69
2023/02/03 04:53:09;;;;;;;52.13;20.50;;;;;;;;;;5135716;27;20063;-69
2023/02/03 04:55:35;;;;;;;51.30;20.07;;;;;;;;;;5100832;27;20139;-69
2023/02/03 04:58:01;;;;;;;50.70;20.17;;;;;;;;;;5101798;27;20613;-69
2023/02/03 05:00:27;;;;;;;56.87;21.07;;;;;;;;;;5101539;27;20048;-69
2023/02/03 05:02:53;;;;;;;54.73;20.10;;;;;;;;;;5101203;27;20061;-68
2023/02/03 05:05:19;;;;;;;56.77;20.10;;;;;;;;;;5118046;27;20465;-69
2023/02/03 05:07:44;;;;;;;55.17;19.83;;;;;;;;;;5100443;27;20035;-68
2023/02/03 05:10:10;;;;;;;54.13;19.70;;;;;;;;;;5117377;27;20453;-68
2023/02/03 05:12:36;;;;;;;59.63;20.93;;;;;;;;;;5117062;27;20465;-68
2023/02/03 05:15:01;;;;;;;54.03;19.03;;;;;;;;;;5099799;27;20097;-68
2023/02/03 05:17:28;;;;;;;56.53;20.23;;;;;;;;;;5117023;27;20076;-69
2023/02/03 05:19:54;;;;;;;64.70;20.83;;;;;;;;;;5099875;27;20410;-69
2023/02/03 05:22:20;;;;;;;60.20;20.60;;;;;;;;;;5135110;27;20070;-68
2023/02/03 05:24:45;;;;;;;54.97;19.97;;;;;;;;;;5099900;27;20034;-69
2023/02/03 05:27:11;;;;;;;55.50;19.40;;;;;;;;;;5099599;27;20464;-68
2023/02/03 05:29:36;;;;;;;53.27;20.33;;;;;;;;;;5116752;27;20061;-68
2023/02/03 05:32:02;;;;;;;66.23;21.07;;;;;;;;;;5099653;27;20137;-68
2023/02/03 05:34:27;;;;;;;59.80;20.97;;;;;;;;;;5099466;27;20130;-68
2023/02/03 05:36:53;;;;;;;59.00;21.53;;;;;;;;;;5099638;27;20473;-68
2023/02/03 05:39:21;;;;;;;67.67;21.37;;;;;;;;;;5116528;27;20111;-68
2023/02/03 05:41:52;;;;;;;60.30;20.70;;;;;;;;;;5116460;27;20076;-69
2023/02/03 05:44:19;;;;;;;60.83;20.17;;;;;;;;;;5116498;27;20031;-68
2023/02/03 05:46:44;;;;;;;55.53;20.07;;;;;;;;;;5099421;27;20035;-68
2023/02/03 05:49:10;;;;;;;67.77;20.53;;;;;;;;;;5099225;27;20058;-69
2023/02/03 05:51:35;;;;;;;56.03;21.00;;;;;;;;;;5099310;27;20484;-69
2023/02/03 05:54:01;;;;;;;63.60;20.27;;;;;;;;;;5098887;27;20035;-69
2023/02/03 05:56:27;;;;;;;59.43;20.00;;;;;;;;;;5099360;27;20042;-69
2023/02/03 05:58:52;;;;;;;56.33;19.57;;;;;;;;;;5099035;27;20035;-69
2023/02/03 06:01:18;;;;;;;57.90;20.37;;;;;;;;;;5082121;27;20050;-69
2023/02/03 06:03:44;;;;;;;56.13;20.20;;;;;;;;;;5115733;27;20046;-70
2023/02/03 06:06:10;;;;;;;54.90;20.40;;;;;;;;;;5098762;27;20133;-68
2023/02/03 06:08:35;;;;;;;59.93;20.73;;;;;;;;;;5099176;27;20102;-69
2023/02/03 06:11:01;;;;;;;67.30;21.80;;;;;;;;;;5098924;27;20461;-69
2023/02/03 06:13:26;;;;;;;61.73;20.87;;;;;;;;;;5115812;27;20051;-70
2023/02/03 06:15:52;;;;;;;62.20;21.00;;;;;;;;;;5098533;27;20145;-69
2023/02/03 06:18:18;;;;;;;66.10;20.53;;;;;;;;;;5098630;27;20032;-69
2023/02/03 06:20:43;;;;;;;56.87;20.70;;;;;;;;;;5115636;27;20415;-69
2023/02/03 06:23:09;;;;;;;67.70;21.47;;;;;;;;;;5133691;27;20102;-68
2023/02/03 06:25:34;;;;;;;61.83;21.83;;;;;;;;;;5098714;27;20173;-69
2023/02/03 06:28:00;;;;;;;71.90;22.07;;;;;;;;;;5115639;27;20122;-69
2023/02/03 06:30:25;;;;;;;58.87;20.63;;;;;;;;;;5081912;27;20043;-69
2023/02/03 06:32:51;;;;;;;69.23;22.03;;;;;;;;;;5081051;27;20031;-69
2023/02/03 06:35:17;;;;;;;62.07;21.20;;;;;;;;;;5081515;27;20043;-69
2023/02/03 06:37:43;;;;;;;65.27;21.90;;;;;;;;;;5081640;27;20035;-69
2023/02/03 06:40:09;;;;;;;43.13;16.17;;;;;;;;;;5098273;27;20035;-69
2023/02/03 06:42:34;;;;;;;68.87;20.80;;;;;;;;;;5098428;27;20038;-69
2023/02/03 06:45:00;;;;;;;56.70;20.90;;;;;;;;;;5098813;27;20027;-69
2023/02/03 06:47:26;;;;;;;59.70;21.93;;;;;;;;;;5098518;27;20031;-68
2023/02/03 06:49:51;;;;;;;63.77;20.03;;;;;;;;;;5098309;27;20050;-68
2023/02/03 06:52:17;;;;;;;55.30;19.73;;;;;;;;;;5115455;27;20043;-69
2023/02/03 06:54:43;;;;;;;55.63;20.33;;;;;;;;;;5115087;27;20035;-68
2023/02/03 06:57:09;;;;;;;52.43;19.77;;;;;;;;;;5098202;27;20121;-69
2023/02/03 06:59:34;;;;;;;53.67;17.60;;;;;;;;;;5098084;27;20046;-69
2023/02/03 07:02:00;;;;;;;65.93;20.73;;;;;;;;;;5098576;27;20038;-68
2023/02/03 07:04:29;;;;;;;58.00;19.30;;;;;;;;;;5098190;27;20389;-68
2023/02/03 07:06:55;;;;;;;59.37;19.90;;;;;;;;;;5098067;28;20088;-68
2023/02/03 07:09:21;;;;;;;58.77;19.67;;;;;;;;;;5097856;28;20481;-68
2023/02/03 07:11:46;;;;;;;55.63;18.67;;;;;;;;;;5097990;28;20038;-68
2023/02/03 07:14:12;;;;;;;58.57;19.20;;;;;;;;;;5097936;28;20438;-69
2023/02/03 07:16:37;;;;;;;50.43;19.17;;;;;;;;;;5097780;28;20069;-68
2023/02/03 07:19:03;;;;;;;47.53;17.67;;;;;;;;;;5098163;28;20145;-69
2023/02/03 07:21:29;;;;;;;49.03;18.80;;;;;;;;;;5098260;28;20122;-69
2023/02/03 07:23:54;;;;;;;51.00;17.07;;;;;;;;;;5097776;28;20119;-69
2023/02/03 07:26:21;;;;;;;50.80;17.77;;;;;;;;;;5097751;28;20076;-68
2023/02/03 07:28:47;;;;;;;43.90;17.00;;;;;;;;;;5097979;28;20405;-68
2023/02/03 07:31:13;;;;;;;39.87;17.00;;;;;;;;;;5097934;28;20119;-68
2023/02/03 07:33:39;;;;;;;40.83;17.23;;;;;;;;;;5114696;28;20051;-68
2023/02/03 07:36:05;;;;;;;44.97;17.00;;;;;;;;;;5097790;28;20073;-69
2023/02/03 07:38:31;;;;;;;42.07;17.27;;;;;;;;;;5114890;28;20376;-68
2023/02/03 07:40:57;;;;;;;41.70;15.90;;;;;;;;;;5097707;28;20114;-68
2023/02/03 07:43:23;;;;;;;40.00;16.77;;;;;;;;;;5099774;27;20019;-68
2023/02/03 07:45:49;;;;;;;51.93;18.13;;;;;;;;;;5101908;27;20050;-69
2023/02/03 07:48:14;;;;;;;46.37;16.83;;;;;;;;;;5136039;27;20465;-68
2023/02/03 07:50:40;;;;;;;46.20;18.53;;;;;;;;;;5101708;27;20031;-68
2023/02/03 07:53:07;;;;;;;41.87;16.90;;;;;;;;;;5101508;27;20038;-69
2023/02/03 07:55:33;;;;;;;42.70;16.47;;;;;;;;;;5118795;27;20469;-68
2023/02/03 07:57:59;;;;;;;42.20;17.33;;;;;;;;;;5101585;27;20109;-68
2023/02/03 08:00:25;;;;;;;41.70;17.00;;;;;;;;;;5101488;27;20042;-68
2023/02/03 08:02:51;;;;;;;38.83;15.73;;;;;;;;;;5101463;27;20419;-68
2023/02/03 08:05:17;;;;;;;46.37;17.07;;;;;;;;;;5101245;27;20042;-68
2023/02/03 08:07:43;;;;;;;40.53;15.93;;;;;;;;;;5101425;27;20050;-68
2023/02/03 08:10:10;;;;;;;41.27;17.10;;;;;;;;;;5118242;27;20084;-68
2023/02/03 08:12:35;;;;;;;36.77;15.50;;;;;;;;;;5101410;27;20035;-68
2023/02/03 08:15:01;;;;;;;37.67;15.60;;;;;;;;;;5118059;27;20054;-68
2023/02/03 08:17:27;;;;;;;42.10;17.27;;;;;;;;;;5101467;27;20038;-68
2023/02/03 08:19:53;;;;;;;45.87;16.73;;;;;;;;;;5101014;27;20031;-68
2023/02/03 08:22:18;;;;;;;49.17;18.67;;;;;;;;;;5100916;27;20484;-68
2023/02/03 08:24:45;;;;;;;48.00;18.00;;;;;;;;;;5101007;27;20045;-68
2023/02/03 08:27:15;;;;;;;47.13;16.87;;;;;;;;;;5101205;27;20055;-67
2023/02/03 08:29:48;;;;;;;41.53;17.70;;;;;;;;;;5101071;27;20031;-68
2023/02/03 08:32:15;;;;;;;41.67;15.87;;;;;;;;;;5100725;27;20054;-68
2023/02/03 08:34:41;;;;;;;36.50;15.73;;;;;;;;;;5135108;27;20043;-68
2023/02/03 08:37:06;;;;;;;36.93;15.63;;;;;;;;;;5101012;27;20039;-68
2023/02/03 08:39:32;;;;;;;33.77;15.47;;;;;;;;;;5101010;27;20468;-68
2023/02/03 08:41:58;;;;;;;32.60;14.33;;;;;;;;;;5100510;27;20031;-69
2023/02/03 08:44:23;;;;;;;44.57;16.83;;;;;;;;;;5100478;27;20096;-67
2023/02/03 08:46:50;;;;;;;36.53;15.23;;;;;;;;;;5100593;27;20087;-68
2023/02/03 08:49:15;;;;;;;37.77;14.70;;;;;;;;;;5100489;27;20058;-68
2023/02/03 08:51:41;;;;;;;33.13;14.53;;;;;;;;;;5100249;27;20062;-67
2023/02/03 08:54:07;;;;;;;33.67;13.80;;;;;;;;;;5099720;28;20439;-67
2023/02/03 08:56:35;;;;;;;31.33;13.57;;;;;;;;;;5100290;27;20042;-67
2023/02/03 08:59:01;;;;;;;32.40;13.30;;;;;;;;;;5100236;27;20091;-67
2023/02/03 09:01:26;;;;;;;31.80;13.50;;;;;;;;;;5100097;27;20138;-67
2023/02/03 09:03:52;;;;;;;31.10;13.43;;;;;;;;;;5100118;27;20042;-67
2023/02/03 09:06:18;;;;;;;31.07;13.60;;;;;;;;;;5100041;27;20031;-67
2023/02/03 09:08:44;;;;;;;35.63;13.60;;;;;;;;;;5100148;27;20122;-67
2023/02/03 09:11:14;;;;;;;34.77;14.23;;;;;;;;;;5100163;27;20031;-68
2023/02/03 09:13:44;;;;;;;37.40;15.13;;;;;;;;;;5100042;27;20036;-68
2023/02/03 09:16:10;;;;;;;40.70;15.57;;;;;;;;;;5117261;27;20103;-68
2023/02/03 09:18:36;;;;;;;38.27;14.67;;;;;;;;;;5100193;27;20419;-67
2023/02/03 09:21:06;;;;;;;37.53;15.93;;;;;;;;;;5099949;27;20189;-68
2023/02/03 09:23:32;;;;;;;27.73;12.55;;;;;;;;;;5099789;27;20035;-67
2023/02/03 09:26:04;;;;;;;38.17;14.73;;;;;;;;;;5099839;27;20389;-66
2023/02/03 09:28:29;;;;;;;37.73;17.03;;;;;;;;;;5099603;27;20087;-67
2023/02/03 09:31:07;;;;;;;35.23;15.07;;;;;;;;;;5099763;27;20039;-67
2023/02/03 09:33:33;;;;;;;34.17;15.07;;;;;;;;;;5099493;27;20046;-66
2023/02/03 09:35:58;;;;;;;33.40;15.73;;;;;;;;;;5117158;27;20051;-66
2023/02/03 09:38:24;;;;;;;36.03;14.10;;;;;;;;;;5099575;27;20034;-66
2023/02/03 09:41:02;;;;;;;34.83;14.23;;;;;;;;;;5116689;27;20031;-66
2023/02/03 09:43:39;;;;;;;33.77;14.00;;;;;;;;;;5116602;27;20095;-66
2023/02/03 09:46:07;;;;;;;32.07;13.70;;;;;;;;;;5099613;27;20069;-67
2023/02/03 09:48:38;;;;;;;34.20;13.30;;;;;;;;;;5099528;27;20035;-67
2023/02/03 09:51:04;;;;;;;31.65;13.15;;;;;;;;;;5116412;27;20037;-67
2023/02/03 09:53:33;;;;;;;26.67;12.07;;;;;;;;;;5116259;27;20090;-67
2023/02/03 09:55:59;;;;;;;27.43;12.87;;;;;;;;;;5116246;27;20031;-66
2023/02/03 09:58:26;;;;;;;30.83;13.40;;;;;;;;;;5099183;27;20023;-66
2023/02/03 10:01:08;;;;;;;28.20;12.57;;;;;;;;;;5116069;27;20070;-67
2023/02/03 10:03:49;;;;;;;29.20;12.53;;;;;;;;;;5116135;27;20031;-67
2023/02/03 10:06:18;;;;;;;29.50;12.37;;;;;;;;;;5115110;27;20072;-67
2023/02/03 10:08:52;;;;;;;27.17;12.70;;;;;;;;;;5098957;27;20035;-68
2023/02/03 10:11:33;;;;;;;24.00;12.03;;;;;;;;;;5099063;27;20059;-67
2023/02/03 10:14:18;;;;;;;26.30;12.20;;;;;;;;;;5098558;27;20031;-67
2023/02/03 10:17:03;;;;;;;26.77;12.80;;;;;;;;;;5098876;27;20031;-68
2023/02/03 10:19:51;;;;;;;24.03;11.63;;;;;;;;;;5098159;27;20047;-67
2023/02/03 10:22:23;;;;;;;23.77;11.83;;;;;;;;;;5132939;27;20042;-67
2023/02/03 10:25:07;;;;;;;27.27;11.67;;;;;;;;;;5098726;27;20035;-67
2023/02/03 10:27:33;;;;;;;26.03;11.60;;;;;;;;;;5098654;27;20510;-67
2023/02/03 10:30:05;;;;;;;31.43;13.37;;;;;;;;;;5098806;27;20438;-67
2023/02/03 10:32:32;;;;;;;30.47;13.13;;;;;;;;;;5115520;27;20031;-68
2023/02/03 10:35:00;;;;;;;23.97;11.50;;;;;;;;;;5098635;27;20074;-68
2023/02/03 10:37:35;;;;;;;22.60;11.17;;;;;;;;;;5098471;27;20042;-68
2023/02/03 10:40:02;;;;;;;23.13;10.97;;;;;;;;;;5115544;27;20058;-68
2023/02/03 10:43:46;;;;;;;24.70;11.53;;;;;;;;;;5132559;27;20027;-67
2023/02/03 10:45:16;;;;;;;25.70;12.07;;;;;;;;;;5098333;27;20035;-69
2023/02/03 10:47:44;;;;;;;29.20;12.20;;;;;;;;;;5098683;27;20031;-68
2023/02/03 10:50:15;;;;;;;22.47;11.30;;;;;;;;;;5098865;27;20034;-68
2023/02/03 10:52:40;;;;;;;22.40;11.38;;;;;;;;;;5098599;27;20027;-68
2023/02/03 10:55:07;;;;;;;25.57;11.20;;;;;;;;;;5098167;27;20533;-69
2023/02/03 10:57:38;;;;;;;23.07;12.07;;;;;;;;;;5098235;27;20072;-68
2023/02/03 11:00:18;;;;;;;17.67;10.05;;;;;;;;;;5115384;27;20496;-68
2023/02/03 11:02:44;;;;;;;21.52;10.95;;;;;;;;;;5098295;28;20031;-68
2023/02/03 11:05:16;;;;;;;21.63;10.87;;;;;;;;;;5098370;27;20031;-68
2023/02/03 11:07:43;;;;;;;22.27;10.67;;;;;;;;;;5115581;27;20046;-68
2023/02/03 11:10:27;;;;;;;18.73;10.33;;;;;;;;;;5097888;27;20134;-68
2023/02/03 11:13:11;;;;;;;21.80;10.70;;;;;;;;;;5115322;28;20039;-67
2023/02/03 11:15:42;;;;;;;22.38;9.90;;;;;;;;;;5098043;28;20112;-67
2023/02/03 11:18:24;;;;;;;20.65;10.38;;;;;;;;;;5100983;27;20496;-68
2023/02/03 11:20:49;;;;;;;19.67;9.87;;;;;;;;;;5104749;27;20031;-67
2023/02/03 11:23:17;;;;;;;18.43;9.63;;;;;;;;;;5104845;27;20038;-68
2023/02/03 11:25:42;;;;;;;20.43;10.33;;;;;;;;;;5104871;27;20339;-68
2023/02/03 11:28:11;;;;;;;16.67;8.73;;;;;;;;;;5104801;27;20039;-68
2023/02/03 11:30:37;;;;;;;16.07;7.57;;;;;;;;;;5104750;27;20027;-68
2023/02/03 11:33:10;;;;;;;12.87;7.00;;;;;;;;;;5104681;27;20039;-67
2023/02/03 11:35:37;;;;;;;12.77;6.77;;;;;;;;;;5104779;27;20047;-68
2023/02/03 11:38:02;;;;;;;15.40;7.80;;;;;;;;;;5104554;27;20091;-67
2023/02/03 11:40:32;;;;;;;17.30;7.80;;;;;;;;;;5121396;27;20129;-68
2023/02/03 11:42:59;;;;;;;17.55;8.43;;;;;;;;;;5104309;27;20415;-68
2023/02/03 11:45:28;;;;;;;13.47;7.93;;;;;;;;;;5104531;27;20038;-67
2023/02/03 11:47:57;;;;;;;14.47;8.17;;;;;;;;;;5104527;27;20384;-68
2023/02/03 11:50:29;;;;;;;13.63;7.80;;;;;;;;;;5104499;27;20039;-68
2023/02/03 11:52:54;;;;;;;15.23;7.38;;;;;;;;;;5104290;27;20039;-67
2023/02/03 11:55:31;;;;;;;15.40;7.90;;;;;;;;;;5121377;27;20054;-68
2023/02/03 11:58:17;;;;;;;16.20;7.63;;;;;;;;;;5104402;27;20107;-67
2023/02/03 12:00:51;;;;;;;14.63;7.73;;;;;;;;;;5104179;27;20469;-67
2023/02/03 12:03:25;;;;;;;14.37;7.53;;;;;;;;;;5104781;27;20023;-67
2023/02/03 12:06:09;;;;;;;14.73;7.70;;;;;;;;;;5121550;27;20039;-68
2023/02/03 12:08:45;;;;;;;20.00;8.23;;;;;;;;;;5121337;27;20090;-67
2023/02/03 12:11:13;;;;;;;16.42;8.10;;;;;;;;;;5104288;27;20023;-67
2023/02/03 12:13:48;;;;;;;15.17;7.60;;;;;;;;;;5104062;27;20039;-67
2023/02/03 12:16:32;;;;;;;14.80;8.50;;;;;;;;;;5121642;27;20495;-67
2023/02/03 12:18:58;;;;;;;15.43;8.47;;;;;;;;;;5104551;27;20046;-67
2023/02/03 12:21:36;;;;;;;16.77;8.33;;;;;;;;;;5104311;27;20026;-67
2023/02/03 12:24:01;;;;;;;14.15;8.50;;;;;;;;;;5104391;27;20126;-68
2023/02/03 12:26:33;;;;;;;16.50;7.90;;;;;;;;;;5104153;27;20180;-67
2023/02/03 12:29:03;;;;;;;18.07;9.00;;;;;;;;;;5102618;28;20426;-67
2023/02/03 12:31:41;;;;;;;21.75;10.00;;;;;;;;;;5100767;27;20031;-68
2023/02/03 12:34:20;;;;;;;16.77;9.63;;;;;;;;;;5100927;27;20084;-68
2023/02/03 12:36:56;;;;;;;18.30;9.33;;;;;;;;;;5101196;27;20111;-69
2023/02/03 12:39:28;;;;;;;21.17;10.80;;;;;;;;;;5100902;27;20023;-68
2023/02/03 12:41:57;;;;;;;24.50;12.03;;;;;;;;;;5117960;27;20453;-69
2023/02/03 12:44:27;;;;;;;21.05;11.07;;;;;;;;;;5100764;27;20049;-68
2023/02/03 12:47:02;;;;;;;20.20;9.43;;;;;;;;;;5100807;27;20035;-68
2023/02/03 12:49:46;;;;;;;13.33;7.83;;;;;;;;;;5100469;27;20035;-68
2023/02/03 12:52:20;;;;;;;14.33;8.17;;;;;;;;;;5100604;27;20066;-68
2023/02/03 12:54:54;;;;;;;17.27;9.20;;;;;;;;;;5100440;27;20070;-68
2023/02/03 12:57:38;;;;;;;17.20;9.27;;;;;;;;;;5100604;27;20487;-69
2023/02/03 13:00:07;;;;;;;14.67;8.70;;;;;;;;;;5117647;27;20035;-69
2023/02/03 13:02:39;;;;;;;15.67;8.73;;;;;;;;;;5100273;27;20039;-70
2023/02/03 13:05:13;;;;;;;17.13;8.67;;;;;;;;;;5100415;27;20126;-69
2023/02/03 13:07:42;;;;;;;14.67;8.43;;;;;;;;;;5100394;27;20126;-69
2023/02/03 13:10:27;;;;;;;15.97;8.73;;;;;;;;;;5100112;27;20046;-69
2023/02/03 13:12:57;;;;;;;16.83;8.33;;;;;;;;;;5117326;27;20081;-69
2023/02/03 13:15:26;;;;;;;16.57;8.60;;;;;;;;;;5134074;27;20074;-69
2023/02/03 13:17:58;;;;;;;15.53;8.97;;;;;;;;;;5100322;27;20059;-69
2023/02/03 13:20:25;;;;;;;19.43;9.27;;;;;;;;;;5100204;27;20118;-69
2023/02/03 13:22:51;;;;;;;19.90;9.83;;;;;;;;;;5117473;27;20118;-68
2023/02/03 13:25:17;;;;;;;19.87;9.97;;;;;;;;;;5099777;27;20134;-68
2023/02/03 13:27:46;;;;;;;17.70;9.40;;;;;;;;;;5099958;27;20072;-69
2023/02/03 13:30:17;;;;;;;18.20;10.23;;;;;;;;;;5100001;27;20034;-68
2023/02/03 13:32:58;;;;;;;19.57;9.63;;;;;;;;;;5099626;27;20388;-69
2023/02/03 13:35:43;;;;;;;19.83;10.35;;;;;;;;;;5099696;27;20099;-70
2023/02/03 13:38:11;;;;;;;21.67;10.97;;;;;;;;;;5099461;27;20031;-69
2023/02/03 13:40:37;;;;;;;23.40;10.93;;;;;;;;;;5099646;27;20039;-69
2023/02/03 13:43:10;;;;;;;20.73;10.97;;;;;;;;;;5099696;27;20035;-69
2023/02/03 13:45:40;;;;;;;23.80;11.50;;;;;;;;;;5099528;27;20031;-69
2023/02/03 13:48:06;;;;;;;24.58;11.93;;;;;;;;;;5082632;27;20054;-69
2023/02/03 13:50:32;;;;;;;22.43;12.20;;;;;;;;;;5099334;27;20469;-68
2023/02/03 13:53:03;;;;;;;23.13;12.20;;;;;;;;;;5099448;27;20042;-69
2023/02/03 13:55:28;;;;;;;25.80;12.35;;;;;;;;;;5116415;27;20047;-69
2023/02/03 13:57:56;;;;;;;26.63;13.73;;;;;;;;;;5099551;27;20046;-68
2023/02/03 14:00:41;;;;;;;27.27;13.67;;;;;;;;;;5099485;27;20130;-68
2023/02/03 14:03:14;;;;;;;24.80;12.77;;;;;;;;;;5099305;27;20038;-69
2023/02/03 14:05:41;;;;;;;27.30;13.33;;;;;;;;;;5099242;27;20031;-68
2023/02/03 14:08:28;;;;;;;24.13;11.97;;;;;;;;;;5116060;27;20035;-69
2023/02/03 14:11:12;;;;;;;23.77;12.23;;;;;;;;;;5099586;27;20118;-69
2023/02/03 14:13:38;;;;;;;24.27;12.73;;;;;;;;;;5133062;27;20038;-69
2023/02/03 14:16:33;;;;;;;25.37;12.63;;;;;;;;;;5098825;27;20078;-68
2023/02/03 14:18:58;;;;;;;27.93;13.57;;;;;;;;;;5085618;27;20097;-69
2023/02/03 14:21:24;;;;;;;27.00;13.20;;;;;;;;;;5099103;27;20460;-68
2023/02/03 14:24:02;;;;;;;30.47;13.43;;;;;;;;;;5098801;27;20038;-68
2023/02/03 14:26:33;;;;;;;32.37;13.73;;;;;;;;;;5098650;27;20031;-69
2023/02/03 14:28:59;;;;;;;28.45;13.00;;;;;;;;;;5098745;27;20042;-68
2023/02/03 14:31:27;;;;;;;29.20;14.10;;;;;;;;;;5098849;27;20046;-68